Delta Virtual Airport Information Service

Kona International Airport

ICAO: PHKO Country: United States
Latitude: 19.7388 Longitude: -156.045
Latest Arrival : DAL1047 (1A) (KSEA-PHKO) Latest Departure : DAC233 (PHKO-PHNL)


WX CaptureLIVE
Data provided by noaa.gov | Fetched at 10:54:58

METAR : PHKO 281518Z AUTO 00000KT 10SM SCT021 BKN026 BKN038 24/19 A3007

TAF : PHKO 281131Z 2812/2912 VRB05KT P6SM VCSH SCT025 BKN050 FM282100 23012G20KT P6SM SCT030 SCT050 FM290500 08005KT P6SM SCT025 SCT050


Runway Data for PHKO
Data provided by openaviationdata.com

Runway ID Mag Var Hdg Length Elevation Surface ILS Freq ILS Id ILS Slope
17 11 173° 11041 ft 47 ft Asphalt 109.7 IKOA 3
35 11 353° 11041 ft 47 ft Asphalt -- -- --

Kona International Airport, United States
Use only for reference purposes



Not for navigational purposes.